sensor_id;sensor_type;location;lat;lon;timestamp;temperature;humidity
17994;DHT22;9122;48.406;9.984;2022-07-29T00:01:18;22.50;88.90
17994;DHT22;9122;48.406;9.984;2022-07-29T00:04:03;22.50;88.80
17994;DHT22;9122;48.406;9.984;2022-07-29T00:06:48;22.50;89.00
17994;DHT22;9122;48.406;9.984;2022-07-29T00:09:32;22.40;88.70
17994;DHT22;9122;48.406;9.984;2022-07-29T00:12:16;22.40;88.60
17994;DHT22;9122;48.406;9.984;2022-07-29T00:15:01;22.30;88.60
17994;DHT22;9122;48.406;9.984;2022-07-29T00:17:46;22.30;88.60
17994;DHT22;9122;48.406;9.984;2022-07-29T00:20:31;22.30;88.90
17994;DHT22;9122;48.406;9.984;2022-07-29T00:23:15;22.30;88.70
17994;DHT22;9122;48.406;9.984;2022-07-29T00:26:00;22.20;89.00
17994;DHT22;9122;48.406;9.984;2022-07-29T00:28:45;22.20;89.40
17994;DHT22;9122;48.406;9.984;2022-07-29T00:31:30;22.20;89.90
17994;DHT22;9122;48.406;9.984;2022-07-29T00:34:14;22.20;90.20
17994;DHT22;9122;48.406;9.984;2022-07-29T00:37:17;22.20;90.50
17994;DHT22;9122;48.406;9.984;2022-07-29T00:40:02;22.20;90.70
17994;DHT22;9122;48.406;9.984;2022-07-29T00:42:52;22.20;90.70
17994;DHT22;9122;48.406;9.984;2022-07-29T00:45:37;22.10;90.70
17994;DHT22;9122;48.406;9.984;2022-07-29T00:48:21;22.00;90.80
17994;DHT22;9122;48.406;9.984;2022-07-29T00:51:07;22.00;91.10
17994;DHT22;9122;48.406;9.984;2022-07-29T00:53:52;22.00;90.90
17994;DHT22;9122;48.406;9.984;2022-07-29T00:56:37;22.00;91.00
17994;DHT22;9122;48.406;9.984;2022-07-29T00:59:21;21.90;91.10
17994;DHT22;9122;48.406;9.984;2022-07-29T01:02:06;21.90;91.20
17994;DHT22;9122;48.406;9.984;2022-07-29T01:04:51;21.90;91.20
17994;DHT22;9122;48.406;9.984;2022-07-29T01:07:36;21.80;91.20
17994;DHT22;9122;48.406;9.984;2022-07-29T01:10:21;21.80;91.10
17994;DHT22;9122;48.406;9.984;2022-07-29T01:13:07;21.80;91.20
17994;DHT22;9122;48.406;9.984;2022-07-29T01:15:58;21.80;91.20
17994;DHT22;9122;48.406;9.984;2022-07-29T01:18:47;21.70;91.30
17994;DHT22;9122;48.406;9.984;2022-07-29T01:30:39;21.60;91.60
17994;DHT22;9122;48.406;9.984;2022-07-29T01:33:26;21.60;91.60
17994;DHT22;9122;48.406;9.984;2022-07-29T01:39:31;21.60;91.70
17994;DHT22;9122;48.406;9.984;2022-07-29T01:42:34;21.60;91.80
17994;DHT22;9122;48.406;9.984;2022-07-29T01:45:45;21.50;91.80
17994;DHT22;9122;48.406;9.984;2022-07-29T01:51:21;21.50;91.90
17994;DHT22;9122;48.406;9.984;2022-07-29T01:57:27;21.50;92.00
17994;DHT22;9122;48.406;9.984;2022-07-29T02:00:13;21.50;91.90
17994;DHT22;9122;48.406;9.984;2022-07-29T02:02:59;21.50;91.80
17994;DHT22;9122;48.406;9.984;2022-07-29T02:05:46;21.50;91.90
17994;DHT22;9122;48.406;9.984;2022-07-29T02:08:33;21.50;91.90
17994;DHT22;9122;48.406;9.984;2022-07-29T02:11:18;21.50;91.90
17994;DHT22;9122;48.406;9.984;2022-07-29T02:14:04;21.40;91.90
17994;DHT22;9122;48.406;9.984;2022-07-29T02:16:52;21.40;91.90
17994;DHT22;9122;48.406;9.984;2022-07-29T02:19:39;21.40;91.90
17994;DHT22;9122;48.406;9.984;2022-07-29T02:22:28;21.30;91.90
17994;DHT22;9122;48.406;9.984;2022-07-29T02:25:14;21.30;92.00
17994;DHT22;9122;48.406;9.984;2022-07-29T02:27:59;21.30;92.00
17994;DHT22;9122;48.406;9.984;2022-07-29T02:30:46;21.30;92.00
17994;DHT22;9122;48.406;9.984;2022-07-29T02:33:31;21.30;92.10
17994;DHT22;9122;48.406;9.984;2022-07-29T02:36:17;21.30;92.10
17994;DHT22;9122;48.406;9.984;2022-07-29T02:39:04;21.20;92.00
17994;DHT22;9122;48.406;9.984;2022-07-29T02:41:56;21.20;92.10
17994;DHT22;9122;48.406;9.984;2022-07-29T02:44:42;21.20;92.10
17994;DHT22;9122;48.406;9.984;2022-07-29T02:47:42;21.20;92.10
17994;DHT22;9122;48.406;9.984;2022-07-29T02:50:34;21.20;92.20
17994;DHT22;9122;48.406;9.984;2022-07-29T02:53:22;21.10;92.20
17994;DHT22;9122;48.406;9.984;2022-07-29T02:56:10;21.10;92.30
17994;DHT22;9122;48.406;9.984;2022-07-29T02:58:59;21.10;92.30
17994;DHT22;9122;48.406;9.984;2022-07-29T03:01:45;21.10;92.30
17994;DHT22;9122;48.406;9.984;2022-07-29T03:04:31;21.10;92.40
17994;DHT22;9122;48.406;9.984;2022-07-29T03:07:18;21.00;92.30
17994;DHT22;9122;48.406;9.984;2022-07-29T03:10:05;21.00;92.40
17994;DHT22;9122;48.406;9.984;2022-07-29T03:12:50;21.00;92.40
17994;DHT22;9122;48.406;9.984;2022-07-29T03:15:35;21.00;92.40
17994;DHT22;9122;48.406;9.984;2022-07-29T03:18:21;20.90;92.40
17994;DHT22;9122;48.406;9.984;2022-07-29T03:21:06;20.90;92.30
17994;DHT22;9122;48.406;9.984;2022-07-29T03:23:50;20.90;92.20
17994;DHT22;9122;48.406;9.984;2022-07-29T03:26:35;20.90;92.10
17994;DHT22;9122;48.406;9.984;2022-07-29T03:29:20;20.90;92.00
17994;DHT22;9122;48.406;9.984;2022-07-29T03:32:05;20.90;92.00
17994;DHT22;9122;48.406;9.984;2022-07-29T03:34:50;20.80;91.80
17994;DHT22;9122;48.406;9.984;2022-07-29T03:37:34;20.80;91.60
17994;DHT22;9122;48.406;9.984;2022-07-29T03:40:27;20.80;91.60
17994;DHT22;9122;48.406;9.984;2022-07-29T03:43:13;20.80;91.60
17994;DHT22;9122;48.406;9.984;2022-07-29T03:46:00;20.80;91.50
17994;DHT22;9122;48.406;9.984;2022-07-29T03:48:48;20.70;91.50
17994;DHT22;9122;48.406;9.984;2022-07-29T03:51:34;20.70;91.30
17994;DHT22;9122;48.406;9.984;2022-07-29T03:54:19;20.70;91.30
17994;DHT22;9122;48.406;9.984;2022-07-29T03:57:05;20.60;91.30
17994;DHT22;9122;48.406;9.984;2022-07-29T03:59:52;20.60;91.30
17994;DHT22;9122;48.406;9.984;2022-07-29T04:02:37;20.60;91.30
17994;DHT22;9122;48.406;9.984;2022-07-29T04:05:22;20.60;91.40
17994;DHT22;9122;48.406;9.984;2022-07-29T04:08:07;20.50;91.40
17994;DHT22;9122;48.406;9.984;2022-07-29T04:10:51;20.50;91.30
17994;DHT22;9122;48.406;9.984;2022-07-29T04:13:36;20.50;91.10
17994;DHT22;9122;48.406;9.984;2022-07-29T04:16:21;20.50;91.00
17994;DHT22;9122;48.406;9.984;2022-07-29T04:19:05;20.50;90.80
17994;DHT22;9122;48.406;9.984;2022-07-29T04:21:50;20.40;90.70
17994;DHT22;9122;48.406;9.984;2022-07-29T04:24:35;20.50;90.70
17994;DHT22;9122;48.406;9.984;2022-07-29T04:27:20;20.40;90.50
17994;DHT22;9122;48.406;9.984;2022-07-29T04:30:05;20.40;90.40
17994;DHT22;9122;48.406;9.984;2022-07-29T04:32:49;20.40;90.40
17994;DHT22;9122;48.406;9.984;2022-07-29T04:35:36;20.40;90.50
17994;DHT22;9122;48.406;9.984;2022-07-29T04:38:21;20.40;90.40
17994;DHT22;9122;48.406;9.984;2022-07-29T04:41:06;20.40;90.40
17994;DHT22;9122;48.406;9.984;2022-07-29T04:43:52;20.40;90.40
17994;DHT22;9122;48.406;9.984;2022-07-29T04:46:36;20.40;90.40
17994;DHT22;9122;48.406;9.984;2022-07-29T04:49:20;20.40;90.20
17994;DHT22;9122;48.406;9.984;2022-07-29T04:52:06;20.40;90.30
17994;DHT22;9122;48.406;9.984;2022-07-29T04:54:53;20.50;90.50
17994;DHT22;9122;48.406;9.984;2022-07-29T04:57:39;20.50;90.60
17994;DHT22;9122;48.406;9.984;2022-07-29T05:00:24;20.50;90.60
17994;DHT22;9122;48.406;9.984;2022-07-29T05:03:09;20.50;90.60
17994;DHT22;9122;48.406;9.984;2022-07-29T05:05:53;20.50;90.70
17994;DHT22;9122;48.406;9.984;2022-07-29T05:08:38;20.50;90.70
17994;DHT22;9122;48.406;9.984;2022-07-29T05:11:22;20.50;90.80
17994;DHT22;9122;48.406;9.984;2022-07-29T05:14:07;20.60;90.70
17994;DHT22;9122;48.406;9.984;2022-07-29T05:16:51;20.60;90.60
17994;DHT22;9122;48.406;9.984;2022-07-29T05:19:37;20.60;90.80
17994;DHT22;9122;48.406;9.984;2022-07-29T05:22:21;20.60;90.80
17994;DHT22;9122;48.406;9.984;2022-07-29T05:25:06;20.60;90.90
17994;DHT22;9122;48.406;9.984;2022-07-29T05:27:51;20.60;90.90
17994;DHT22;9122;48.406;9.984;2022-07-29T05:30:36;20.60;91.00
17994;DHT22;9122;48.406;9.984;2022-07-29T05:33:20;20.60;91.10
17994;DHT22;9122;48.406;9.984;2022-07-29T05:36:04;20.70;91.20
17994;DHT22;9122;48.406;9.984;2022-07-29T05:38:52;20.70;91.30
17994;DHT22;9122;48.406;9.984;2022-07-29T05:41:36;20.70;91.30
17994;DHT22;9122;48.406;9.984;2022-07-29T05:44:21;20.70;91.30
17994;DHT22;9122;48.406;9.984;2022-07-29T05:47:05;20.70;91.40
17994;DHT22;9122;48.406;9.984;2022-07-29T05:49:50;20.70;91.40
17994;DHT22;9122;48.406;9.984;2022-07-29T05:52:34;20.80;91.50
17994;DHT22;9122;48.406;9.984;2022-07-29T05:55:19;20.80;91.60
17994;DHT22;9122;48.406;9.984;2022-07-29T05:58:03;20.80;91.70
17994;DHT22;9122;48.406;9.984;2022-07-29T06:00:48;20.80;91.60
17994;DHT22;9122;48.406;9.984;2022-07-29T06:03:33;20.80;91.60
17994;DHT22;9122;48.406;9.984;2022-07-29T06:06:18;20.90;91.50
17994;DHT22;9122;48.406;9.984;2022-07-29T06:09:03;20.90;91.60
17994;DHT22;9122;48.406;9.984;2022-07-29T06:11:48;20.90;91.80
17994;DHT22;9122;48.406;9.984;2022-07-29T06:14:32;20.90;91.90
17994;DHT22;9122;48.406;9.984;2022-07-29T06:17:17;20.90;91.80
17994;DHT22;9122;48.406;9.984;2022-07-29T06:20:02;20.90;91.70
17994;DHT22;9122;48.406;9.984;2022-07-29T06:22:47;20.90;91.70
17994;DHT22;9122;48.406;9.984;2022-07-29T06:25:31;20.90;91.70
17994;DHT22;9122;48.406;9.984;2022-07-29T06:28:18;20.90;92.10
17994;DHT22;9122;48.406;9.984;2022-07-29T06:31:03;20.90;91.80
17994;DHT22;9122;48.406;9.984;2022-07-29T06:33:48;21.00;91.60
17994;DHT22;9122;48.406;9.984;2022-07-29T06:36:37;21.00;91.60
17994;DHT22;9122;48.406;9.984;2022-07-29T06:39:21;21.00;91.60
17994;DHT22;9122;48.406;9.984;2022-07-29T06:42:06;21.00;91.60
17994;DHT22;9122;48.406;9.984;2022-07-29T06:44:51;21.00;91.70
17994;DHT22;9122;48.406;9.984;2022-07-29T06:47:35;21.00;91.70
17994;DHT22;9122;48.406;9.984;2022-07-29T06:50:20;21.00;91.60
17994;DHT22;9122;48.406;9.984;2022-07-29T06:53:05;21.00;91.70
17994;DHT22;9122;48.406;9.984;2022-07-29T06:55:50;21.00;91.80
17994;DHT22;9122;48.406;9.984;2022-07-29T06:58:35;21.00;91.80
17994;DHT22;9122;48.406;9.984;2022-07-29T07:01:20;21.00;91.70
17994;DHT22;9122;48.406;9.984;2022-07-29T07:04:04;21.00;91.60
17994;DHT22;9122;48.406;9.984;2022-07-29T07:06:49;21.00;91.70
17994;DHT22;9122;48.406;9.984;2022-07-29T07:09:34;21.00;91.60
17994;DHT22;9122;48.406;9.984;2022-07-29T07:12:18;21.00;91.70
17994;DHT22;9122;48.406;9.984;2022-07-29T07:15:03;21.00;91.90
17994;DHT22;9122;48.406;9.984;2022-07-29T07:17:48;21.00;92.00
17994;DHT22;9122;48.406;9.984;2022-07-29T07:20:33;21.00;92.00
17994;DHT22;9122;48.406;9.984;2022-07-29T07:23:18;21.10;92.00
17994;DHT22;9122;48.406;9.984;2022-07-29T07:26:03;21.10;91.90
17994;DHT22;9122;48.406;9.984;2022-07-29T07:28:47;21.20;91.70
17994;DHT22;9122;48.406;9.984;2022-07-29T07:31:32;21.20;91.60
17994;DHT22;9122;48.406;9.984;2022-07-29T07:34:16;21.20;91.50
17994;DHT22;9122;48.406;9.984;2022-07-29T07:37:01;21.20;91.50
17994;DHT22;9122;48.406;9.984;2022-07-29T07:39:46;21.20;91.50
17994;DHT22;9122;48.406;9.984;2022-07-29T07:42:30;21.20;91.50
17994;DHT22;9122;48.406;9.984;2022-07-29T07:45:15;21.20;91.60
17994;DHT22;9122;48.406;9.984;2022-07-29T07:48:00;21.30;91.50
17994;DHT22;9122;48.406;9.984;2022-07-29T07:50:44;21.30;91.60
17994;DHT22;9122;48.406;9.984;2022-07-29T07:53:29;21.30;91.60
17994;DHT22;9122;48.406;9.984;2022-07-29T07:56:15;21.40;91.70
17994;DHT22;9122;48.406;9.984;2022-07-29T07:58:59;21.40;91.50
17994;DHT22;9122;48.406;9.984;2022-07-29T08:01:44;21.50;91.30
17994;DHT22;9122;48.406;9.984;2022-07-29T08:04:29;21.50;91.30
17994;DHT22;9122;48.406;9.984;2022-07-29T08:07:13;21.50;91.20
17994;DHT22;9122;48.406;9.984;2022-07-29T08:09:59;21.60;91.20
17994;DHT22;9122;48.406;9.984;2022-07-29T08:12:43;21.70;91.00
17994;DHT22;9122;48.406;9.984;2022-07-29T08:15:28;21.70;90.70
17994;DHT22;9122;48.406;9.984;2022-07-29T08:18:13;21.80;90.40
17994;DHT22;9122;48.406;9.984;2022-07-29T08:20:58;21.90;90.40
17994;DHT22;9122;48.406;9.984;2022-07-29T08:23:44;22.00;90.20
17994;DHT22;9122;48.406;9.984;2022-07-29T08:26:30;22.20;90.00
17994;DHT22;9122;48.406;9.984;2022-07-29T08:29:14;22.30;89.00
17994;DHT22;9122;48.406;9.984;2022-07-29T08:31:59;22.50;88.40
17994;DHT22;9122;48.406;9.984;2022-07-29T08:34:43;22.70;87.80
17994;DHT22;9122;48.406;9.984;2022-07-29T08:37:29;22.80;87.30
17994;DHT22;9122;48.406;9.984;2022-07-29T08:40:14;22.90;87.30
17994;DHT22;9122;48.406;9.984;2022-07-29T08:43:07;23.00;86.20
17994;DHT22;9122;48.406;9.984;2022-07-29T08:45:52;23.20;85.80
17994;DHT22;9122;48.406;9.984;2022-07-29T08:48:36;23.20;85.70
17994;DHT22;9122;48.406;9.984;2022-07-29T08:51:22;23.30;85.40
17994;DHT22;9122;48.406;9.984;2022-07-29T08:54:09;23.40;85.30
17994;DHT22;9122;48.406;9.984;2022-07-29T08:56:54;23.50;84.90
17994;DHT22;9122;48.406;9.984;2022-07-29T08:59:41;23.60;84.40
17994;DHT22;9122;48.406;9.984;2022-07-29T09:02:29;23.70;83.70
17994;DHT22;9122;48.406;9.984;2022-07-29T09:05:14;23.90;83.60
17994;DHT22;9122;48.406;9.984;2022-07-29T09:07:59;24.00;83.50
17994;DHT22;9122;48.406;9.984;2022-07-29T09:10:44;24.10;82.90
17994;DHT22;9122;48.406;9.984;2022-07-29T09:13:29;24.20;82.70
17994;DHT22;9122;48.406;9.984;2022-07-29T09:16:13;24.30;82.30
17994;DHT22;9122;48.406;9.984;2022-07-29T09:18:59;24.40;82.00
17994;DHT22;9122;48.406;9.984;2022-07-29T09:21:44;24.40;81.50
17994;DHT22;9122;48.406;9.984;2022-07-29T09:24:46;24.40;81.20
17994;DHT22;9122;48.406;9.984;2022-07-29T09:27:31;24.50;81.00
17994;DHT22;9122;48.406;9.984;2022-07-29T09:30:15;24.50;81.60
17994;DHT22;9122;48.406;9.984;2022-07-29T09:33:02;24.60;82.30
17994;DHT22;9122;48.406;9.984;2022-07-29T09:36:08;24.60;81.70
17994;DHT22;9122;48.406;9.984;2022-07-29T09:39:00;24.70;81.10
17994;DHT22;9122;48.406;9.984;2022-07-29T09:41:53;24.90;80.80
17994;DHT22;9122;48.406;9.984;2022-07-29T09:44:48;25.00;80.10
17994;DHT22;9122;48.406;9.984;2022-07-29T09:48:00;25.10;79.80
17994;DHT22;9122;48.406;9.984;2022-07-29T09:50:56;25.20;79.80
17994;DHT22;9122;48.406;9.984;2022-07-29T09:53:42;25.20;79.50
17994;DHT22;9122;48.406;9.984;2022-07-29T09:56:40;25.20;79.20
17994;DHT22;9122;48.406;9.984;2022-07-29T09:59:25;25.30;79.40
17994;DHT22;9122;48.406;9.984;2022-07-29T10:02:14;25.40;79.20
17994;DHT22;9122;48.406;9.984;2022-07-29T10:05:00;25.40;78.60
17994;DHT22;9122;48.406;9.984;2022-07-29T10:10:30;25.50;78.70
17994;DHT22;9122;48.406;9.984;2022-07-29T10:13:14;25.60;79.00
17994;DHT22;9122;48.406;9.984;2022-07-29T10:15:59;25.70;78.60
17994;DHT22;9122;48.406;9.984;2022-07-29T10:18:44;25.90;78.30
17994;DHT22;9122;48.406;9.984;2022-07-29T10:21:30;26.00;77.50
17994;DHT22;9122;48.406;9.984;2022-07-29T10:24:16;26.10;76.30
17994;DHT22;9122;48.406;9.984;2022-07-29T10:27:02;26.10;76.10
17994;DHT22;9122;48.406;9.984;2022-07-29T10:29:47;26.20;75.00
17994;DHT22;9122;48.406;9.984;2022-07-29T10:41:31;26.10;72.30
17994;DHT22;9122;48.406;9.984;2022-07-29T10:44:20;26.10;73.40
17994;DHT22;9122;48.406;9.984;2022-07-29T10:47:04;26.00;74.20
17994;DHT22;9122;48.406;9.984;2022-07-29T10:50:00;25.90;74.60
17994;DHT22;9122;48.406;9.984;2022-07-29T10:55:39;25.90;75.40
17994;DHT22;9122;48.406;9.984;2022-07-29T10:58:29;25.80;75.80
17994;DHT22;9122;48.406;9.984;2022-07-29T11:01:30;25.80;76.00
17994;DHT22;9122;48.406;9.984;2022-07-29T11:05:02;25.80;75.70
17994;DHT22;9122;48.406;9.984;2022-07-29T11:07:20;25.80;76.00
17994;DHT22;9122;48.406;9.984;2022-07-29T11:12:58;25.80;75.60
17994;DHT22;9122;48.406;9.984;2022-07-29T11:15:54;25.80;75.20
17994;DHT22;9122;48.406;9.984;2022-07-29T11:19:25;25.80;75.00
17994;DHT22;9122;48.406;9.984;2022-07-29T11:22:11;25.80;73.60
17994;DHT22;9122;48.406;9.984;2022-07-29T11:25:16;25.80;73.40
17994;DHT22;9122;48.406;9.984;2022-07-29T11:28:13;25.80;73.00
17994;DHT22;9122;48.406;9.984;2022-07-29T11:31:00;25.80;72.60
17994;DHT22;9122;48.406;9.984;2022-07-29T11:33:45;25.80;72.40
17994;DHT22;9122;48.406;9.984;2022-07-29T11:36:29;25.80;72.00
17994;DHT22;9122;48.406;9.984;2022-07-29T11:39:27;25.80;71.30
17994;DHT22;9122;48.406;9.984;2022-07-29T11:45:09;25.80;71.60
17994;DHT22;9122;48.406;9.984;2022-07-29T11:47:56;25.80;72.20
17994;DHT22;9122;48.406;9.984;2022-07-29T11:50:44;25.80;70.80
17994;DHT22;9122;48.406;9.984;2022-07-29T11:53:29;25.70;69.20
17994;DHT22;9122;48.406;9.984;2022-07-29T11:56:14;25.70;68.20
17994;DHT22;9122;48.406;9.984;2022-07-29T11:59:06;25.70;67.60
17994;DHT22;9122;48.406;9.984;2022-07-29T12:01:57;25.70;67.10
17994;DHT22;9122;48.406;9.984;2022-07-29T12:04:52;25.70;67.70
17994;DHT22;9122;48.406;9.984;2022-07-29T12:07:38;25.70;68.40
17994;DHT22;9122;48.406;9.984;2022-07-29T12:10:30;25.70;69.00
17994;DHT22;9122;48.406;9.984;2022-07-29T12:13:16;25.70;69.40
17994;DHT22;9122;48.406;9.984;2022-07-29T12:16:00;25.70;69.50
17994;DHT22;9122;48.406;9.984;2022-07-29T12:18:59;25.70;69.70
17994;DHT22;9122;48.406;9.984;2022-07-29T12:21:45;25.80;70.00
17994;DHT22;9122;48.406;9.984;2022-07-29T12:24:43;25.80;69.90
17994;DHT22;9122;48.406;9.984;2022-07-29T12:27:27;25.80;69.60
17994;DHT22;9122;48.406;9.984;2022-07-29T12:30:14;25.90;68.80
17994;DHT22;9122;48.406;9.984;2022-07-29T12:32:59;25.90;68.40
17994;DHT22;9122;48.406;9.984;2022-07-29T12:35:54;26.00;68.40
17994;DHT22;9122;48.406;9.984;2022-07-29T12:38:40;26.00;68.20
17994;DHT22;9122;48.406;9.984;2022-07-29T12:41:28;26.10;68.40
17994;DHT22;9122;48.406;9.984;2022-07-29T12:44:12;26.20;67.90
17994;DHT22;9122;48.406;9.984;2022-07-29T12:47:03;26.40;67.60
17994;DHT22;9122;48.406;9.984;2022-07-29T12:49:49;26.40;67.80
17994;DHT22;9122;48.406;9.984;2022-07-29T12:52:34;26.50;68.30
17994;DHT22;9122;48.406;9.984;2022-07-29T12:55:47;26.50;68.70
17994;DHT22;9122;48.406;9.984;2022-07-29T12:58:38;26.60;70.00
17994;DHT22;9122;48.406;9.984;2022-07-29T13:01:22;26.60;70.20
17994;DHT22;9122;48.406;9.984;2022-07-29T13:04:07;26.60;69.00
17994;DHT22;9122;48.406;9.984;2022-07-29T13:07:01;26.70;68.30
17994;DHT22;9122;48.406;9.984;2022-07-29T13:09:47;26.70;66.80
17994;DHT22;9122;48.406;9.984;2022-07-29T13:12:31;26.70;66.30
17994;DHT22;9122;48.406;9.984;2022-07-29T13:15:16;26.70;65.50
17994;DHT22;9122;48.406;9.984;2022-07-29T13:18:01;26.80;64.90
17994;DHT22;9122;48.406;9.984;2022-07-29T13:20:46;26.80;65.30
17994;DHT22;9122;48.406;9.984;2022-07-29T13:23:30;26.80;65.60
17994;DHT22;9122;48.406;9.984;2022-07-29T13:26:14;26.70;65.60
17994;DHT22;9122;48.406;9.984;2022-07-29T13:29:03;26.80;66.10
17994;DHT22;9122;48.406;9.984;2022-07-29T13:31:48;26.70;65.40
17994;DHT22;9122;48.406;9.984;2022-07-29T13:34:33;26.70;65.10
17994;DHT22;9122;48.406;9.984;2022-07-29T13:37:18;26.70;65.50
17994;DHT22;9122;48.406;9.984;2022-07-29T13:40:05;26.70;65.50
17994;DHT22;9122;48.406;9.984;2022-07-29T13:42:50;26.60;71.20
17994;DHT22;9122;48.406;9.984;2022-07-29T13:45:34;26.40;76.50
17994;DHT22;9122;48.406;9.984;2022-07-29T13:48:20;26.10;78.50
17994;DHT22;9122;48.406;9.984;2022-07-29T13:51:05;25.80;82.00
17994;DHT22;9122;48.406;9.984;2022-07-29T13:53:49;25.30;82.20
17994;DHT22;9122;48.406;9.984;2022-07-29T13:56:34;24.70;82.20
17994;DHT22;9122;48.406;9.984;2022-07-29T13:59:18;24.30;85.00
17994;DHT22;9122;48.406;9.984;2022-07-29T14:02:03;23.90;87.40
17994;DHT22;9122;48.406;9.984;2022-07-29T14:04:48;23.70;86.50
17994;DHT22;9122;48.406;9.984;2022-07-29T14:07:32;23.40;88.10
17994;DHT22;9122;48.406;9.984;2022-07-29T14:10:17;23.30;90.00
17994;DHT22;9122;48.406;9.984;2022-07-29T14:13:01;23.20;89.90
17994;DHT22;9122;48.406;9.984;2022-07-29T14:15:46;23.10;89.20
17994;DHT22;9122;48.406;9.984;2022-07-29T14:18:30;23.00;90.00
17994;DHT22;9122;48.406;9.984;2022-07-29T14:21:15;22.90;90.20
17994;DHT22;9122;48.406;9.984;2022-07-29T14:24:00;22.90;90.40
17994;DHT22;9122;48.406;9.984;2022-07-29T14:26:44;22.80;90.30
17994;DHT22;9122;48.406;9.984;2022-07-29T14:29:29;22.70;90.10
17994;DHT22;9122;48.406;9.984;2022-07-29T14:32:13;22.70;90.00
17994;DHT22;9122;48.406;9.984;2022-07-29T14:34:58;22.70;90.50
17994;DHT22;9122;48.406;9.984;2022-07-29T14:37:43;22.60;90.60
17994;DHT22;9122;48.406;9.984;2022-07-29T14:40:28;22.60;90.60
17994;DHT22;9122;48.406;9.984;2022-07-29T14:43:13;22.60;90.90
17994;DHT22;9122;48.406;9.984;2022-07-29T14:45:58;22.60;90.80
17994;DHT22;9122;48.406;9.984;2022-07-29T14:48:42;22.50;90.90
17994;DHT22;9122;48.406;9.984;2022-07-29T14:51:27;22.50;90.70
17994;DHT22;9122;48.406;9.984;2022-07-29T14:54:11;22.50;90.20
17994;DHT22;9122;48.406;9.984;2022-07-29T14:56:56;22.50;90.30
17994;DHT22;9122;48.406;9.984;2022-07-29T14:59:41;22.40;90.70
17994;DHT22;9122;48.406;9.984;2022-07-29T15:02:25;22.40;91.20
17994;DHT22;9122;48.406;9.984;2022-07-29T15:05:10;22.40;91.20
17994;DHT22;9122;48.406;9.984;2022-07-29T15:07:54;22.40;91.40
17994;DHT22;9122;48.406;9.984;2022-07-29T15:10:39;22.40;91.50
17994;DHT22;9122;48.406;9.984;2022-07-29T15:13:24;22.30;91.50
17994;DHT22;9122;48.406;9.984;2022-07-29T15:16:08;22.30;91.50
17994;DHT22;9122;48.406;9.984;2022-07-29T15:18:53;22.20;91.70
17994;DHT22;9122;48.406;9.984;2022-07-29T15:21:38;22.20;91.80
17994;DHT22;9122;48.406;9.984;2022-07-29T15:24:23;22.20;92.00
17994;DHT22;9122;48.406;9.984;2022-07-29T15:27:07;22.10;92.00
17994;DHT22;9122;48.406;9.984;2022-07-29T15:29:58;22.10;92.10
17994;DHT22;9122;48.406;9.984;2022-07-29T15:32:43;22.10;92.20
17994;DHT22;9122;48.406;9.984;2022-07-29T15:35:28;22.10;92.30
17994;DHT22;9122;48.406;9.984;2022-07-29T15:38:12;22.10;92.30
17994;DHT22;9122;48.406;9.984;2022-07-29T15:40:57;22.10;92.10
17994;DHT22;9122;48.406;9.984;2022-07-29T15:43:45;22.00;92.00
17994;DHT22;9122;48.406;9.984;2022-07-29T15:46:32;22.00;91.90
17994;DHT22;9122;48.406;9.984;2022-07-29T15:49:39;22.00;92.10
17994;DHT22;9122;48.406;9.984;2022-07-29T15:52:24;22.00;92.10
17994;DHT22;9122;48.406;9.984;2022-07-29T15:55:08;22.00;92.40
17994;DHT22;9122;48.406;9.984;2022-07-29T15:57:53;21.90;92.40
17994;DHT22;9122;48.406;9.984;2022-07-29T16:00:38;21.90;92.60
17994;DHT22;9122;48.406;9.984;2022-07-29T16:03:22;21.90;92.70
17994;DHT22;9122;48.406;9.984;2022-07-29T16:06:06;21.90;92.70
17994;DHT22;9122;48.406;9.984;2022-07-29T16:08:51;21.90;92.60
17994;DHT22;9122;48.406;9.984;2022-07-29T16:11:40;21.90;92.50
17994;DHT22;9122;48.406;9.984;2022-07-29T16:14:24;21.90;92.40
17994;DHT22;9122;48.406;9.984;2022-07-29T16:17:09;21.90;92.10
17994;DHT22;9122;48.406;9.984;2022-07-29T16:19:54;21.90;91.80
17994;DHT22;9122;48.406;9.984;2022-07-29T16:22:39;21.80;91.70
17994;DHT22;9122;48.406;9.984;2022-07-29T16:25:23;21.80;91.80
17994;DHT22;9122;48.406;9.984;2022-07-29T16:28:08;21.80;91.80
17994;DHT22;9122;48.406;9.984;2022-07-29T16:30:53;21.80;92.00
17994;DHT22;9122;48.406;9.984;2022-07-29T16:33:37;21.80;91.90
17994;DHT22;9122;48.406;9.984;2022-07-29T16:36:22;21.80;91.90
17994;DHT22;9122;48.406;9.984;2022-07-29T16:39:07;21.70;92.00
17994;DHT22;9122;48.406;9.984;2022-07-29T16:41:51;21.70;92.20
17994;DHT22;9122;48.406;9.984;2022-07-29T16:44:35;21.70;92.30
17994;DHT22;9122;48.406;9.984;2022-07-29T16:47:20;21.70;92.30
17994;DHT22;9122;48.406;9.984;2022-07-29T16:50:05;21.70;92.20
17994;DHT22;9122;48.406;9.984;2022-07-29T16:52:50;21.70;92.20
17994;DHT22;9122;48.406;9.984;2022-07-29T16:55:34;21.70;92.10
17994;DHT22;9122;48.406;9.984;2022-07-29T16:58:19;21.70;92.20
17994;DHT22;9122;48.406;9.984;2022-07-29T17:01:04;21.60;92.40
17994;DHT22;9122;48.406;9.984;2022-07-29T17:03:49;21.60;92.60
17994;DHT22;9122;48.406;9.984;2022-07-29T17:06:49;21.60;92.80
17994;DHT22;9122;48.406;9.984;2022-07-29T17:09:34;21.60;92.90
17994;DHT22;9122;48.406;9.984;2022-07-29T17:12:18;21.60;93.10
17994;DHT22;9122;48.406;9.984;2022-07-29T17:15:04;21.60;93.20
17994;DHT22;9122;48.406;9.984;2022-07-29T17:17:49;21.60;93.40
17994;DHT22;9122;48.406;9.984;2022-07-29T17:20:34;21.60;93.30
17994;DHT22;9122;48.406;9.984;2022-07-29T17:23:19;21.60;93.30
17994;DHT22;9122;48.406;9.984;2022-07-29T17:26:04;21.60;93.20
17994;DHT22;9122;48.406;9.984;2022-07-29T17:28:49;21.60;93.20
17994;DHT22;9122;48.406;9.984;2022-07-29T17:31:33;21.50;93.10
17994;DHT22;9122;48.406;9.984;2022-07-29T17:34:18;21.50;93.00
17994;DHT22;9122;48.406;9.984;2022-07-29T17:37:04;21.50;93.10
17994;DHT22;9122;48.406;9.984;2022-07-29T17:39:49;21.50;93.20
17994;DHT22;9122;48.406;9.984;2022-07-29T17:42:34;21.50;93.40
17994;DHT22;9122;48.406;9.984;2022-07-29T17:45:19;21.50;93.50
17994;DHT22;9122;48.406;9.984;2022-07-29T17:48:03;21.50;93.60
17994;DHT22;9122;48.406;9.984;2022-07-29T17:50:48;21.50;93.40
17994;DHT22;9122;48.406;9.984;2022-07-29T17:53:33;21.50;93.40
17994;DHT22;9122;48.406;9.984;2022-07-29T17:56:17;21.50;93.40
17994;DHT22;9122;48.406;9.984;2022-07-29T17:59:01;21.40;93.20
17994;DHT22;9122;48.406;9.984;2022-07-29T18:01:49;21.40;93.20
17994;DHT22;9122;48.406;9.984;2022-07-29T18:04:34;21.40;93.30
17994;DHT22;9122;48.406;9.984;2022-07-29T18:07:18;21.40;93.50
17994;DHT22;9122;48.406;9.984;2022-07-29T18:10:03;21.40;93.60
17994;DHT22;9122;48.406;9.984;2022-07-29T18:12:48;21.40;93.80
17994;DHT22;9122;48.406;9.984;2022-07-29T18:15:33;21.30;93.80
17994;DHT22;9122;48.406;9.984;2022-07-29T18:18:17;21.30;93.90
17994;DHT22;9122;48.406;9.984;2022-07-29T18:21:02;21.30;94.00
17994;DHT22;9122;48.406;9.984;2022-07-29T18:23:46;21.30;94.00
17994;DHT22;9122;48.406;9.984;2022-07-29T18:26:33;21.30;94.20